aviador You're here:

LFBL Decoded Metar

LIMOGES in FRANCE
Report Time2018-06-17 23:00:00
UTC Time2018-06-17 23:35:23
Flight Rules vfr VFR
Wind280° at 06 kt
W.Decomp.*RWY 21: 2.0 kt HW 5.7 kt RCW
W.Rank280° ranks 4
Current wind is below 280° avg. (6.6)
Visibility9999 m
Phenomena:N/A
Clouds:N/A
Expected CloudBase > 1,200 ft AGL from Temp-Dew spread
CeilingNone
Temp13°C (ISA +1)
Dew Point10°C (82% RH)
AAT10.9°C
QNH1025 hPa
Density Alt1,158 ft
Elevation1,319 ft
Report Wrong Elevation
Raw Report
METAR LFBL 172300Z AUTO 28006KT 260V320 CAVOK 13/10 Q1025 NOSIG=

Extra information for LFBL:More info

Metar Taf Metar & Taf Last 4 Metars F.Rules Stats Wind Profile Meteogram Temp Stats Airport Information Weather charts Add Link Nearby VenuesMetar ALERT Operation Metar Decoded Social comments